Parksville, South Carolina
Current Conditions -  °F | °C
As of 3:55 PM on Tuesday 27 Jan 2015 (Local Time) from KHQU Reporting Station
Broken Clouds Broken Clouds  
Wind Chill: 53°   Ceiling: 5500
Heat Index: 53°   Visibility: 10mi
Dew Point: 32°   Wind: 7mph
Humidity: 44%   Direction: 280°W
Pressure: 29.94"   Gusts: NA
Location:  33.79°N, 82.22°W
Report Text: KHQU 272055Z AUTO 28006KT 10SM BKN055 12/00 A2994 RMK AO1 T01190001
Loading
Personal Weather Stations






























Interactive Weather Map New forecast layout! Learn more

10-Day Weather Forecast

Advertisements
Track Severe Weather on mobile